createdAt,value
2019-05-14T00:02:09.111Z,99540.92
2019-05-14T00:04:42.017Z,99541.09
2019-05-14T00:07:11.909Z,99545.41
2019-05-14T00:09:43.206Z,99540.80
2019-05-14T00:12:13.790Z,99537.17
2019-05-14T00:14:44.385Z,99528.69
2019-05-14T00:17:14.855Z,99539.50
2019-05-14T00:23:34.659Z,99537.30
2019-05-14T00:26:05.270Z,99547.83
2019-05-14T00:28:35.710Z,99558.05
2019-05-14T00:31:06.787Z,99543.92
2019-05-14T00:33:37.580Z,99550.66
2019-05-14T00:36:08.419Z,99551.53
2019-05-14T00:38:41.787Z,99545.55
2019-05-14T00:41:11.835Z,99542.44
2019-05-14T00:43:42.162Z,99544.93
2019-05-14T00:46:12.945Z,99537.23
2019-05-14T00:48:43.824Z,99545.15
2019-05-14T00:51:14.462Z,99526.05
2019-05-14T00:53:45.177Z,99533.04
2019-05-14T00:56:15.919Z,99525.75
2019-05-14T00:58:46.755Z,99527.87
2019-05-14T01:01:17.332Z,99521.19
2019-05-14T01:03:48.123Z,99524.00
2019-05-14T01:06:18.850Z,99526.86
2019-05-14T01:08:51.686Z,99522.27
2019-05-14T01:11:22.149Z,99517.17
2019-05-14T01:13:52.881Z,99518.47
2019-05-14T01:16:23.694Z,99499.08
2019-05-14T01:18:55.380Z,99506.36
2019-05-14T01:21:26.373Z,99508.29
2019-05-14T01:23:56.834Z,99519.09
2019-05-14T01:26:27.789Z,99519.58
2019-05-14T01:28:58.640Z,99519.58
2019-05-14T01:31:31.478Z,99510.38
2019-05-14T01:34:02.346Z,99507.61
2019-05-14T01:36:33.304Z,99519.88
2019-05-14T01:39:05.758Z,99519.59
2019-05-14T01:41:36.088Z,99511.98
2019-05-14T01:44:07.941Z,99507.92
2019-05-14T01:46:38.682Z,99505.91
2019-05-14T01:49:09.216Z,99504.50
2019-05-14T01:51:42.118Z,99500.11
2019-05-14T01:54:12.289Z,99495.91
2019-05-14T01:56:43.211Z,99487.61
2019-05-14T01:59:14.030Z,99486.31
2019-05-14T02:01:44.499Z,99496.70
2019-05-14T02:04:15.225Z,99494.41
2019-05-14T02:06:46.087Z,99497.61
2019-05-14T02:09:16.582Z,99492.91
2019-05-14T02:11:47.754Z,99484.73
2019-05-14T02:14:18.056Z,99471.45
2019-05-14T02:16:51.064Z,99475.32
2019-05-14T02:19:22.160Z,99480.52
2019-05-14T02:21:53.055Z,99485.32
2019-05-14T02:24:23.773Z,99490.81
2019-05-14T02:26:54.595Z,99480.64
2019-05-14T02:29:25.346Z,99466.66
2019-05-14T02:31:58.849Z,99463.34
2019-05-14T02:34:29.973Z,99464.54
2019-05-14T02:37:01.695Z,99463.95
2019-05-14T02:39:32.270Z,99462.95
2019-05-14T02:42:03.155Z,99463.62
2019-05-14T02:44:33.625Z,99459.16
2019-05-14T02:47:04.475Z,99472.63
2019-05-14T02:49:34.810Z,99459.53
2019-05-14T02:52:05.527Z,99466.36
2019-05-14T02:54:36.279Z,99461.94
2019-05-14T02:57:10.256Z,99470.13
2019-05-14T02:59:39.883Z,99456.46
2019-05-14T03:02:10.724Z,99450.35
2019-05-14T03:04:40.999Z,99461.23
2019-05-14T03:07:13.063Z,99454.88
2019-05-14T03:09:43.949Z,99449.05
2019-05-14T03:12:15.601Z,99445.45
2019-05-14T03:14:49.479Z,99438.29
2019-05-14T03:17:19.822Z,99450.56
2019-05-14T03:19:51.856Z,99439.45
2019-05-14T03:22:28.983Z,99431.57
2019-05-14T03:24:55.122Z,99437.67
2019-05-14T03:27:25.908Z,99439.27
2019-05-14T03:29:58.605Z,99447.97
2019-05-14T03:32:33.006Z,99444.36
2019-05-14T03:35:03.883Z,99438.16
2019-05-14T03:37:33.938Z,99440.17
2019-05-14T03:40:09.311Z,99440.95
2019-05-14T03:42:40.185Z,99424.89
2019-05-14T03:45:10.588Z,99441.86
2019-05-14T03:47:41.852Z,99448.74
2019-05-14T03:50:12.521Z,99449.75
2019-05-14T03:52:43.280Z,99451.72
2019-05-14T03:55:15.076Z,99443.35
2019-05-14T03:57:45.981Z,99445.75
2019-05-14T04:00:18.813Z,99448.93
2019-05-14T04:02:49.424Z,99448.94
2019-05-14T04:05:22.695Z,99445.56
2019-05-14T04:07:52.633Z,99451.77
2019-05-14T04:10:25.180Z,99445.27
2019-05-14T04:12:55.917Z,99448.84
2019-05-14T04:15:29.661Z,99452.73
2019-05-14T04:17:59.768Z,99452.64
2019-05-14T04:20:30.233Z,99454.65
2019-05-14T04:23:00.864Z,99438.58
2019-05-14T04:25:31.640Z,99449.64
2019-05-14T04:28:02.383Z,99450.13
2019-05-14T04:30:33.140Z,99456.13
2019-05-14T04:33:04.368Z,99457.73
2019-05-14T04:35:39.876Z,99455.52
2019-05-14T04:38:09.603Z,99452.33
2019-05-14T04:40:40.083Z,99453.00
2019-05-14T04:43:10.982Z,99454.41
2019-05-14T04:45:41.824Z,99449.92
2019-05-14T04:48:27.943Z,99447.33
2019-05-14T04:50:49.529Z,99444.54
2019-05-14T04:53:19.699Z,99437.73
2019-05-14T04:55:50.289Z,99434.73
2019-05-14T04:58:21.851Z,99431.47
2019-05-14T05:00:52.743Z,99425.77
2019-05-14T05:03:23.658Z,99419.60
2019-05-14T05:05:54.339Z,99398.73
2019-05-14T05:08:30.029Z,99416.77
2019-05-14T05:11:00.864Z,99411.30
2019-05-14T05:13:31.874Z,99402.01
2019-05-14T05:16:02.738Z,99407.61
2019-05-14T05:18:34.571Z,99408.30
2019-05-14T05:21:05.084Z,99412.72
2019-05-14T05:23:38.176Z,99414.80
2019-05-14T05:26:09.321Z,99387.06
2019-05-14T05:28:41.854Z,99421.87
2019-05-14T05:31:12.618Z,99412.39
2019-05-14T05:33:45.224Z,99402.20
2019-05-14T05:36:15.685Z,99420.28
2019-05-14T05:38:48.716Z,99425.09
2019-05-14T05:41:19.138Z,99416.19
2019-05-14T05:43:50.343Z,99417.80
2019-05-14T05:46:20.959Z,99421.28
2019-05-14T05:48:51.707Z,99420.51
2019-05-14T05:51:22.166Z,99418.59
2019-05-14T05:53:53.131Z,99415.88
2019-05-14T05:56:23.757Z,99402.59
2019-05-14T05:58:54.700Z,99400.70
2019-05-14T06:01:39.489Z,99405.11
2019-05-14T06:03:58.434Z,99407.22
2019-05-14T06:06:29.197Z,99402.00
2019-05-14T06:08:59.624Z,99402.92
2019-05-14T06:11:30.050Z,99394.01
2019-05-14T06:14:00.332Z,99406.41
2019-05-14T06:16:31.211Z,99399.70
2019-05-14T06:19:02.049Z,99401.80
2019-05-14T06:21:32.617Z,99417.88
2019-05-14T06:24:03.370Z,99409.42
2019-05-14T06:26:35.489Z,99396.83
2019-05-14T06:29:08.206Z,99412.19
2019-05-14T06:31:38.962Z,99410.89
2019-05-14T06:34:09.790Z,99410.20
2019-05-14T06:36:40.622Z,99383.92
2019-05-14T06:39:11.357Z,99391.31
2019-05-14T06:41:43.118Z,99393.06
2019-05-14T06:44:14.705Z,99381.14
2019-05-14T06:46:45.192Z,99382.70
2019-05-14T06:49:18.202Z,99380.59
2019-05-14T06:51:48.939Z,99374.72
2019-05-14T06:54:19.818Z,99366.77
2019-05-14T06:56:50.277Z,99378.02
2019-05-14T06:59:21.214Z,99374.28
2019-05-14T07:01:52.073Z,99390.80
2019-05-14T07:04:22.759Z,99387.02
2019-05-14T07:06:53.619Z,99382.97
2019-05-14T07:09:26.002Z,99385.52
2019-05-14T07:11:58.476Z,99382.45
2019-05-14T07:14:29.362Z,99377.16
2019-05-14T07:16:59.955Z,99380.59
2019-05-14T07:19:30.511Z,99379.37
2019-05-14T07:22:01.842Z,99385.88
2019-05-14T07:24:32.688Z,99388.84
2019-05-14T07:27:03.713Z,99383.54
2019-05-14T07:29:34.514Z,99380.55
2019-05-14T07:32:05.329Z,99383.23
2019-05-14T07:34:38.638Z,99372.10
2019-05-14T07:37:09.261Z,99361.55
2019-05-14T07:39:41.601Z,99362.44
2019-05-14T07:42:14.134Z,99367.16
2019-05-14T07:44:44.759Z,99359.88
2019-05-14T07:47:15.743Z,99362.13
2019-05-14T07:49:49.111Z,99366.69
2019-05-14T07:52:19.965Z,99375.39
2019-05-14T07:54:50.607Z,99362.39
2019-05-14T07:57:22.158Z,99370.07
2019-05-14T07:59:52.972Z,99361.27
2019-05-14T08:02:23.918Z,99362.95
2019-05-14T08:04:57.931Z,99363.81
2019-05-14T08:07:28.162Z,99363.97
2019-05-14T08:09:59.517Z,99366.23
2019-05-14T08:12:30.103Z,99361.45
2019-05-14T08:15:14.277Z,99352.86
2019-05-14T08:17:33.768Z,99359.22
2019-05-14T08:20:08.988Z,99359.40
2019-05-14T08:22:40.574Z,99363.64
2019-05-14T08:25:11.401Z,99356.80
2019-05-14T08:27:42.081Z,99343.86
2019-05-14T08:30:12.857Z,99350.61
2019-05-14T08:32:43.344Z,99356.44
2019-05-14T08:35:15.304Z,99350.08
2019-05-14T08:37:46.244Z,99346.09
2019-05-14T08:40:20.483Z,99347.27
2019-05-14T08:42:49.296Z,99346.05
2019-05-14T08:45:19.775Z,99340.41
2019-05-14T08:47:50.142Z,99342.58
2019-05-14T08:50:21.895Z,99342.08
2019-05-14T08:52:55.055Z,99340.84
2019-05-14T08:55:25.723Z,99345.56
2019-05-14T08:57:58.905Z,99342.02
2019-05-14T09:00:28.945Z,99340.41
2019-05-14T09:03:02.993Z,99347.89
2019-05-14T09:05:32.109Z,99349.34
2019-05-14T09:08:04.109Z,99351.77
2019-05-14T09:10:34.585Z,99346.52
2019-05-14T09:13:05.219Z,99349.81
2019-05-14T09:15:38.456Z,99360.40
2019-05-14T09:18:11.795Z,99360.63
2019-05-14T09:20:41.867Z,99362.31
2019-05-14T09:23:12.705Z,99367.56
2019-05-14T09:25:47.313Z,99376.39
2019-05-14T09:28:18.605Z,99368.95
2019-05-14T09:30:50.179Z,99368.72
2019-05-14T09:33:24.285Z,99349.64
2019-05-14T09:36:09.632Z,99345.05
2019-05-14T09:38:29.108Z,99333.05
2019-05-14T09:41:10.619Z,99338.59
2019-05-14T09:43:35.943Z,99327.07
2019-05-14T09:46:08.818Z,99333.61
2019-05-14T09:48:39.184Z,99340.33
2019-05-14T09:51:11.045Z,99341.28
2019-05-14T09:53:43.808Z,99334.66
2019-05-14T09:56:14.487Z,99337.17
2019-05-14T09:58:49.230Z,99339.03
2019-05-14T10:01:19.401Z,99337.73
2019-05-14T10:03:50.448Z,99333.05
2019-05-14T10:06:24.579Z,99334.27
2019-05-14T10:08:56.222Z,99340.72
2019-05-14T10:11:28.894Z,99345.10
2019-05-14T10:14:00.426Z,99343.93
2019-05-14T10:16:33.027Z,99340.33
2019-05-14T10:19:04.184Z,99329.02
2019-05-14T10:21:34.721Z,99327.63
2019-05-14T10:24:05.569Z,99329.66
2019-05-14T10:26:39.323Z,99328.28
2019-05-14T10:29:10.147Z,99329.72
2019-05-14T10:31:41.392Z,99322.97
2019-05-14T10:34:15.433Z,99330.87
2019-05-14T10:36:47.193Z,99327.97
2019-05-14T10:39:19.224Z,99324.27
2019-05-14T10:41:50.379Z,99321.91
2019-05-14T10:44:21.233Z,99320.30
2019-05-14T10:46:51.559Z,99324.20
2019-05-14T10:49:23.769Z,99311.11
2019-05-14T10:51:54.726Z,99312.61
2019-05-14T10:54:28.997Z,99315.71
2019-05-14T10:56:59.230Z,99309.75
2019-05-14T10:59:30.101Z,99298.06
2019-05-14T11:02:00.833Z,99295.17
2019-05-14T11:04:34.340Z,99291.16
2019-05-14T11:07:05.253Z,99288.98
2019-05-14T11:09:37.869Z,99295.80
2019-05-14T11:12:08.991Z,99282.48
2019-05-14T11:14:39.867Z,99281.64
2019-05-14T11:17:12.006Z,99275.22
2019-05-14T11:19:42.523Z,99265.80
2019-05-14T11:22:13.093Z,99262.23
2019-05-14T11:24:43.638Z,99265.55
2019-05-14T11:27:15.309Z,99267.77
2019-05-14T11:29:46.145Z,99254.90
2019-05-14T11:32:18.562Z,99264.11
2019-05-14T11:34:48.996Z,99257.50
2019-05-14T11:37:24.876Z,99256.95
2019-05-14T11:39:52.834Z,99264.37
2019-05-14T11:42:23.570Z,99269.56
2019-05-14T11:44:55.116Z,99263.53
2019-05-14T11:47:25.515Z,99251.81
2019-05-14T11:49:59.130Z,99255.88
2019-05-14T11:52:31.586Z,99251.97
2019-05-14T11:55:04.103Z,99249.17
2019-05-14T11:57:34.741Z,99246.70
2019-05-14T12:00:08.513Z,99242.64
2019-05-14T12:02:39.330Z,99241.70
2019-05-14T12:05:10.525Z,99243.95
2019-05-14T12:07:42.786Z,99234.36
2019-05-14T12:10:13.223Z,99237.05
2019-05-14T12:12:44.855Z,99218.06
2019-05-14T12:15:18.544Z,99212.30
2019-05-14T12:17:50.986Z,99208.63
2019-05-14T12:20:20.692Z,99218.84
2019-05-14T12:22:53.308Z,99212.38
2019-05-14T12:25:24.986Z,99211.67
2019-05-14T12:27:58.731Z,99187.95
2019-05-14T12:30:28.822Z,99176.98
2019-05-14T12:33:00.533Z,99161.59
2019-05-14T12:35:31.816Z,99193.08
2019-05-14T12:38:03.171Z,99182.61
2019-05-14T12:40:33.904Z,99184.87
2019-05-14T12:43:04.634Z,99197.97
2019-05-14T12:45:35.063Z,99209.86
2019-05-14T12:48:06.022Z,99216.64
2019-05-14T12:50:39.226Z,99223.39
2019-05-14T12:53:11.755Z,99223.94
2019-05-14T12:55:42.442Z,99219.92
2019-05-14T12:58:14.871Z,99215.97
2019-05-14T13:00:48.474Z,99211.75
2019-05-14T13:03:21.371Z,99202.84
2019-05-14T13:05:55.467Z,99201.64
2019-05-14T13:08:27.227Z,99170.94
2019-05-14T13:10:59.675Z,99165.34
2019-05-14T13:13:32.029Z,99179.67
2019-05-14T13:16:04.488Z,99169.88
2019-05-14T13:18:40.312Z,99164.75
2019-05-14T13:21:15.944Z,99172.17
2019-05-14T13:23:50.243Z,99175.03
2019-05-14T13:26:23.408Z,99173.33
2019-05-14T13:28:53.984Z,99173.97
2019-05-14T13:31:24.926Z,99171.05
2019-05-14T13:33:59.204Z,99160.78
2019-05-14T13:36:28.924Z,99156.94
2019-05-14T13:38:59.823Z,99151.34
2019-05-14T13:41:33.446Z,99132.11
2019-05-14T13:44:17.309Z,99136.53
2019-05-14T13:46:37.355Z,99127.89
2019-05-14T13:49:08.350Z,99124.95
2019-05-14T13:51:40.877Z,99131.95
2019-05-14T13:54:13.933Z,99136.45
2019-05-14T13:56:45.581Z,99141.39
2019-05-14T13:59:18.767Z,99143.19
2019-05-14T14:01:50.366Z,99144.48
2019-05-14T14:04:21.001Z,99140.09
2019-05-14T14:06:51.738Z,99137.64
2019-05-14T14:09:22.200Z,99144.06
2019-05-14T14:11:52.949Z,99143.98
2019-05-14T14:14:23.736Z,99141.64
2019-05-14T14:17:04.954Z,99141.80
2019-05-14T14:19:49.817Z,99142.92
2019-05-14T14:22:21.028Z,99130.22
2019-05-14T14:24:53.800Z,99139.66
2019-05-14T14:27:33.200Z,99137.15
2019-05-14T14:30:12.074Z,99129.67
2019-05-14T14:32:49.269Z,99125.84
2019-05-14T14:35:30.224Z,99131.86
2019-05-14T14:38:00.009Z,99133.38
2019-05-14T14:40:32.094Z,99121.17
2019-05-14T14:43:05.794Z,99122.84
2019-05-14T14:45:44.649Z,99120.08
2019-05-14T14:48:19.871Z,99115.33
2019-05-14T14:50:58.853Z,99112.07
2019-05-14T14:53:47.393Z,99114.17
2019-05-14T14:56:13.113Z,99103.20
2019-05-14T14:58:44.566Z,99103.27
2019-05-14T15:01:19.035Z,99101.14
2019-05-14T15:03:50.398Z,99094.96
2019-05-14T15:06:24.164Z,99096.28
2019-05-14T15:08:55.293Z,99107.69
2019-05-14T15:11:29.594Z,99098.73
2019-05-14T15:14:01.982Z,99097.75
2019-05-14T15:16:32.307Z,99097.91
2019-05-14T15:19:03.273Z,99099.22
2019-05-14T15:21:40.406Z,99107.28
2019-05-14T15:24:19.278Z,99098.74
2019-05-14T15:26:47.794Z,99096.46
2019-05-14T15:29:18.714Z,99086.20
2019-05-14T15:31:50.615Z,99086.89
2019-05-14T15:34:23.091Z,99094.93
2019-05-14T15:36:53.726Z,99091.98
2019-05-14T15:39:24.423Z,99089.48
2019-05-14T15:41:55.088Z,99082.30
2019-05-14T15:44:25.920Z,99080.67
2019-05-14T15:46:58.713Z,99080.45
2019-05-14T15:49:30.250Z,99083.14
2019-05-14T15:52:01.194Z,99093.56
2019-05-14T15:54:42.112Z,99084.09
2019-05-14T15:57:04.103Z,99082.01
2019-05-14T15:59:38.994Z,99079.80
2019-05-14T16:02:09.343Z,99072.55
2019-05-14T16:04:39.234Z,99068.33
2019-05-14T16:07:09.694Z,99064.57
2019-05-14T16:09:42.042Z,99065.21
2019-05-14T16:12:14.477Z,99064.27
2019-05-14T16:14:45.274Z,99069.05
2019-05-14T16:17:23.658Z,99071.67
2019-05-14T16:19:48.957Z,99069.78
2019-05-14T16:22:20.856Z,99064.10
2019-05-14T16:24:57.016Z,99061.81
2019-05-14T16:27:29.780Z,99063.59
2019-05-14T16:30:00.634Z,99061.24
2019-05-14T16:32:32.286Z,99060.52
2019-05-14T16:35:03.125Z,99057.75
2019-05-14T16:37:39.242Z,99057.74
2019-05-14T16:40:12.108Z,99065.88
2019-05-14T16:42:49.469Z,99061.95
2019-05-14T16:45:20.906Z,99056.25
2019-05-14T16:47:51.537Z,99058.31
2019-05-14T16:50:36.762Z,99059.69
2019-05-14T16:53:11.369Z,99053.00
2019-05-14T16:55:41.064Z,99050.30
2019-05-14T16:58:15.075Z,99052.81
2019-05-14T17:00:46.018Z,99051.44
2019-05-14T17:03:20.725Z,99050.55
2019-05-14T17:05:53.193Z,99055.94
2019-05-14T17:08:23.928Z,99051.36
2019-05-14T17:10:54.775Z,99048.95
2019-05-14T17:13:28.568Z,99043.23
2019-05-14T17:16:00.101Z,99038.67
2019-05-14T17:18:31.574Z,99051.70
2019-05-14T17:21:02.101Z,99045.81
2019-05-14T17:23:39.048Z,99040.61
2019-05-14T17:26:09.412Z,99041.61
2019-05-14T17:28:40.657Z,99029.91
2019-05-14T17:31:15.707Z,99039.81
2019-05-14T17:33:49.168Z,99038.19
2019-05-14T17:36:18.985Z,99039.19
2019-05-14T17:38:49.639Z,99033.48
2019-05-14T17:41:21.426Z,99042.95
2019-05-14T17:43:52.190Z,99022.53
2019-05-14T17:46:23.313Z,99015.52
2019-05-14T17:48:55.721Z,99015.52
2019-05-14T17:51:28.405Z,99013.56
2019-05-14T17:54:02.986Z,99003.05
2019-05-14T17:56:39.037Z,98996.87
2019-05-14T17:59:10.151Z,99003.37
2019-05-14T18:01:40.677Z,99017.37
2019-05-14T18:04:12.458Z,99019.73
2019-05-14T18:06:43.143Z,99026.87
2019-05-14T18:09:13.792Z,99023.39
2019-05-14T18:11:50.570Z,99014.67
2019-05-14T18:14:23.770Z,99012.17
2019-05-14T18:16:54.080Z,99022.52
2019-05-14T18:19:24.591Z,99011.92
2019-05-14T18:21:59.224Z,99019.00
2019-05-14T18:24:30.378Z,99001.77
2019-05-14T18:27:02.852Z,99008.61
2019-05-14T18:29:33.717Z,99007.78
2019-05-14T18:32:04.692Z,99009.73
2019-05-14T18:34:35.472Z,99010.96
2019-05-14T18:37:12.997Z,99015.09
2019-05-14T18:39:39.416Z,99006.48
2019-05-14T18:42:10.619Z,99008.11
2019-05-14T18:44:42.889Z,99008.44
2019-05-14T18:47:16.383Z,99014.44
2019-05-14T18:49:45.463Z,99017.87
2019-05-14T18:52:18.497Z,99019.32
2019-05-14T18:54:48.464Z,99018.20
2019-05-14T18:57:20.461Z,99018.51
2019-05-14T18:59:50.926Z,99025.34
2019-05-14T19:02:24.235Z,99029.08
2019-05-14T19:04:57.795Z,99014.98
2019-05-14T19:07:30.158Z,98996.49
2019-05-14T19:10:01.982Z,98981.58
2019-05-14T19:12:34.899Z,98970.03
2019-05-14T19:15:08.720Z,98968.55
2019-05-14T19:17:41.386Z,98970.83
2019-05-14T19:20:11.570Z,98962.80
2019-05-14T19:22:43.751Z,98946.11
2019-05-14T19:25:18.630Z,98937.80
2019-05-14T19:27:54.830Z,98937.65
2019-05-14T19:30:28.660Z,98938.95
2019-05-14T19:33:00.429Z,98940.10
2019-05-14T19:35:31.119Z,98955.97
2019-05-14T19:38:02.410Z,98942.88
2019-05-14T19:40:41.344Z,98932.14
2019-05-14T19:43:20.159Z,98928.78
2019-05-14T19:45:52.629Z,98930.52
2019-05-14T19:48:23.370Z,98934.35
2019-05-14T19:50:55.809Z,98934.50
2019-05-14T19:53:29.164Z,98939.09
2019-05-14T19:55:59.649Z,98940.16
2019-05-14T19:58:31.523Z,98943.34
2019-05-14T20:01:02.340Z,98948.22
2019-05-14T20:03:37.165Z,98954.70
2019-05-14T20:06:09.167Z,98951.92
2019-05-14T20:08:41.176Z,98954.49
2019-05-14T20:11:11.748Z,98949.43
2019-05-14T20:13:42.271Z,98955.32
2019-05-14T20:16:15.364Z,98948.81
2019-05-14T20:18:45.779Z,98951.09
2019-05-14T20:21:17.138Z,98956.52
2019-05-14T20:23:48.133Z,98956.77
2019-05-14T20:26:20.110Z,98954.45
2019-05-14T20:28:50.876Z,98953.16
2019-05-14T20:31:23.035Z,98953.22
2019-05-14T20:33:53.840Z,98953.40
2019-05-14T20:36:24.670Z,98943.98
2019-05-14T20:38:58.921Z,98949.99
2019-05-14T20:41:32.691Z,98954.83
2019-05-14T20:44:05.027Z,98960.28
2019-05-14T20:46:38.033Z,98952.95
2019-05-14T20:49:08.828Z,98954.40
2019-05-14T20:51:40.435Z,98946.36
2019-05-14T20:54:11.122Z,98953.59
2019-05-14T20:56:41.741Z,98948.97
2019-05-14T20:59:12.451Z,98943.18
2019-05-14T21:01:45.977Z,98949.36
2019-05-14T21:04:18.699Z,98944.48
2019-05-14T21:06:48.835Z,98940.58
2019-05-14T21:09:19.364Z,98945.89
2019-05-14T21:11:50.853Z,98942.06
2019-05-14T21:14:21.443Z,98944.31
2019-05-14T21:16:52.075Z,98933.17
2019-05-14T21:19:23.940Z,98934.25
2019-05-14T21:21:54.359Z,98931.40
2019-05-14T21:24:25.241Z,98926.91
2019-05-14T21:26:58.241Z,98920.41
2019-05-14T21:29:30.452Z,98923.16
2019-05-14T21:32:01.888Z,98920.63
2019-05-14T21:34:35.360Z,98916.80
2019-05-14T21:37:05.869Z,98912.41
2019-05-14T21:39:38.268Z,98912.73
2019-05-14T21:42:10.855Z,98913.17
2019-05-14T21:44:43.649Z,98899.58
2019-05-14T21:47:14.397Z,98902.75
2019-05-14T21:49:45.786Z,98898.67
2019-05-14T21:52:18.046Z,98899.10
2019-05-14T21:54:50.530Z,98889.55
2019-05-14T21:57:22.186Z,98893.89
2019-05-14T21:59:52.719Z,98889.45
2019-05-14T22:02:27.494Z,98887.20
2019-05-14T22:04:55.672Z,98889.88
2019-05-14T22:07:26.761Z,98883.30
2019-05-14T22:09:58.326Z,98876.94
2019-05-14T22:12:28.802Z,98870.83
2019-05-14T22:14:59.574Z,98872.53
2019-05-14T22:17:31.191Z,98866.16
2019-05-14T22:20:03.044Z,98856.20
2019-05-14T22:22:33.263Z,98859.46
2019-05-14T22:25:05.540Z,98850.27
2019-05-14T22:27:36.063Z,98848.97
2019-05-14T22:30:09.551Z,98844.02
2019-05-14T22:32:41.219Z,98844.20
2019-05-14T22:35:11.759Z,98841.20
2019-05-14T22:37:44.182Z,98833.79
2019-05-14T22:40:14.895Z,98831.83
2019-05-14T22:42:45.332Z,98833.13
2019-05-14T22:45:18.468Z,98826.44
2019-05-14T22:47:51.874Z,98823.66
2019-05-14T22:50:23.770Z,98816.81
2019-05-14T22:52:54.502Z,98819.99
2019-05-14T22:55:30.861Z,98817.39
2019-05-14T22:57:59.187Z,98808.41
2019-05-14T23:00:31.065Z,98807.18
2019-05-14T23:03:01.420Z,98815.64
2019-05-14T23:05:32.168Z,98808.62
2019-05-14T23:08:02.502Z,98810.50
2019-05-14T23:10:32.870Z,98806.22
2019-05-14T23:13:03.503Z,98809.80
2019-05-14T23:15:34.136Z,98801.91
2019-05-14T23:18:04.757Z,98801.59
2019-05-14T23:20:35.441Z,98802.75
2019-05-14T23:23:06.008Z,98793.77
2019-05-14T23:25:38.723Z,98789.72
2019-05-14T23:28:08.702Z,98796.37
2019-05-14T23:30:39.152Z,98792.00
2019-05-14T23:33:09.880Z,98786.36
2019-05-14T23:35:40.536Z,98780.48
2019-05-14T23:38:11.292Z,98782.19
2019-05-14T23:40:41.720Z,98781.38
2019-05-14T23:43:12.155Z,98770.53
2019-05-14T23:45:42.778Z,98776.58
2019-05-14T23:48:15.203Z,98773.84
2019-05-14T23:50:45.787Z,98767.33
2019-05-14T23:53:18.331Z,98765.95
2019-05-14T23:55:50.180Z,98757.94
2019-05-14T23:58:20.948Z,98760.48
